sensor_id;sensor_type;location;lat;lon;timestamp;temperature;humidity
33955;DHT22;20233;50.804;7.126;2023-07-30T00:01:41;17.80;99.90
33955;DHT22;20233;50.804;7.126;2023-07-30T00:04:06;17.80;99.90
33955;DHT22;20233;50.804;7.126;2023-07-30T00:06:32;17.80;99.90
33955;DHT22;20233;50.804;7.126;2023-07-30T00:08:57;17.80;99.90
33955;DHT22;20233;50.804;7.126;2023-07-30T00:11:23;17.80;99.90
33955;DHT22;20233;50.804;7.126;2023-07-30T00:13:48;17.80;99.90
33955;DHT22;20233;50.804;7.126;2023-07-30T00:16:14;17.80;99.90
33955;DHT22;20233;50.804;7.126;2023-07-30T00:18:39;17.70;99.90
33955;DHT22;20233;50.804;7.126;2023-07-30T00:21:05;17.70;99.90
33955;DHT22;20233;50.804;7.126;2023-07-30T00:23:30;17.70;99.90
33955;DHT22;20233;50.804;7.126;2023-07-30T00:25:56;17.60;99.90
33955;DHT22;20233;50.804;7.126;2023-07-30T00:28:21;17.60;99.90
33955;DHT22;20233;50.804;7.126;2023-07-30T00:30:47;17.60;99.90
33955;DHT22;20233;50.804;7.126;2023-07-30T00:33:12;17.60;99.90
33955;DHT22;20233;50.804;7.126;2023-07-30T00:35:38;17.50;99.90
33955;DHT22;20233;50.804;7.126;2023-07-30T00:38:03;17.50;99.90
33955;DHT22;20233;50.804;7.126;2023-07-30T00:40:29;17.40;99.90
33955;DHT22;20233;50.804;7.126;2023-07-30T00:42:54;17.40;99.90
33955;DHT22;20233;50.804;7.126;2023-07-30T00:45:20;17.40;99.90
33955;DHT22;20233;50.804;7.126;2023-07-30T00:47:47;17.40;99.90
33955;DHT22;20233;50.804;7.126;2023-07-30T00:50:14;17.40;99.90
33955;DHT22;20233;50.804;7.126;2023-07-30T00:55:07;17.40;99.90
33955;DHT22;20233;50.804;7.126;2023-07-30T00:57:33;17.40;99.90
33955;DHT22;20233;50.804;7.126;2023-07-30T01:00:01;17.40;99.90
33955;DHT22;20233;50.804;7.126;2023-07-30T01:02:31;17.30;99.90
33955;DHT22;20233;50.804;7.126;2023-07-30T01:04:58;17.30;99.90
33955;DHT22;20233;50.804;7.126;2023-07-30T01:07:25;17.20;99.90
33955;DHT22;20233;50.804;7.126;2023-07-30T01:09:51;17.20;99.90
33955;DHT22;20233;50.804;7.126;2023-07-30T01:12:16;17.20;99.90
33955;DHT22;20233;50.804;7.126;2023-07-30T01:14:44;17.20;99.90
33955;DHT22;20233;50.804;7.126;2023-07-30T01:17:11;17.20;99.90
33955;DHT22;20233;50.804;7.126;2023-07-30T01:19:37;17.20;99.90
33955;DHT22;20233;50.804;7.126;2023-07-30T01:22:03;17.10;99.90
33955;DHT22;20233;50.804;7.126;2023-07-30T01:24:28;17.10;99.90
33955;DHT22;20233;50.804;7.126;2023-07-30T01:26:59;17.10;99.90
33955;DHT22;20233;50.804;7.126;2023-07-30T01:29:29;17.10;99.90
33955;DHT22;20233;50.804;7.126;2023-07-30T01:32:03;17.20;99.90
33955;DHT22;20233;50.804;7.126;2023-07-30T01:34:30;17.10;99.90
33955;DHT22;20233;50.804;7.126;2023-07-30T01:37:00;17.10;99.90
33955;DHT22;20233;50.804;7.126;2023-07-30T01:39:25;17.10;99.90
33955;DHT22;20233;50.804;7.126;2023-07-30T01:41:54;17.10;99.90
33955;DHT22;20233;50.804;7.126;2023-07-30T01:44:20;17.10;99.90
33955;DHT22;20233;50.804;7.126;2023-07-30T01:46:45;17.10;99.90
33955;DHT22;20233;50.804;7.126;2023-07-30T01:49:11;17.10;99.90
33955;DHT22;20233;50.804;7.126;2023-07-30T01:51:36;17.10;99.90
33955;DHT22;20233;50.804;7.126;2023-07-30T01:54:02;17.20;99.90
33955;DHT22;20233;50.804;7.126;2023-07-30T01:56:27;17.20;99.90
33955;DHT22;20233;50.804;7.126;2023-07-30T01:58:53;17.30;99.90
33955;DHT22;20233;50.804;7.126;2023-07-30T02:01:18;17.30;99.90
33955;DHT22;20233;50.804;7.126;2023-07-30T02:03:44;17.30;99.90
33955;DHT22;20233;50.804;7.126;2023-07-30T02:06:09;17.40;99.90
33955;DHT22;20233;50.804;7.126;2023-07-30T02:08:38;17.40;99.90
33955;DHT22;20233;50.804;7.126;2023-07-30T02:11:03;17.40;99.90
33955;DHT22;20233;50.804;7.126;2023-07-30T02:13:29;17.40;99.90
33955;DHT22;20233;50.804;7.126;2023-07-30T02:15:55;17.50;99.90
33955;DHT22;20233;50.804;7.126;2023-07-30T02:18:20;17.50;99.90
33955;DHT22;20233;50.804;7.126;2023-07-30T02:20:46;17.50;99.90
33955;DHT22;20233;50.804;7.126;2023-07-30T02:23:14;17.40;99.90
33955;DHT22;20233;50.804;7.126;2023-07-30T02:25:41;17.50;99.90
33955;DHT22;20233;50.804;7.126;2023-07-30T02:28:07;17.50;99.90
33955;DHT22;20233;50.804;7.126;2023-07-30T02:30:33;17.50;99.90
33955;DHT22;20233;50.804;7.126;2023-07-30T02:32:59;17.50;99.90
33955;DHT22;20233;50.804;7.126;2023-07-30T02:35:24;17.50;99.90
33955;DHT22;20233;50.804;7.126;2023-07-30T02:37:50;17.50;99.90
33955;DHT22;20233;50.804;7.126;2023-07-30T02:40:16;17.50;99.90
33955;DHT22;20233;50.804;7.126;2023-07-30T02:42:42;17.50;99.90
33955;DHT22;20233;50.804;7.126;2023-07-30T02:45:08;17.50;99.90
33955;DHT22;20233;50.804;7.126;2023-07-30T02:47:33;17.50;99.90
33955;DHT22;20233;50.804;7.126;2023-07-30T02:49:59;17.60;99.90
33955;DHT22;20233;50.804;7.126;2023-07-30T02:52:24;17.50;99.90
33955;DHT22;20233;50.804;7.126;2023-07-30T02:54:50;17.50;99.90
33955;DHT22;20233;50.804;7.126;2023-07-30T02:57:15;17.60;99.90
33955;DHT22;20233;50.804;7.126;2023-07-30T02:59:41;17.60;99.90
33955;DHT22;20233;50.804;7.126;2023-07-30T03:02:06;17.60;99.90
33955;DHT22;20233;50.804;7.126;2023-07-30T03:04:32;17.60;99.90
33955;DHT22;20233;50.804;7.126;2023-07-30T03:06:58;17.50;99.90
33955;DHT22;20233;50.804;7.126;2023-07-30T03:09:24;17.50;99.90
33955;DHT22;20233;50.804;7.126;2023-07-30T03:11:49;17.50;99.90
33955;DHT22;20233;50.804;7.126;2023-07-30T03:14:15;17.40;99.90
33955;DHT22;20233;50.804;7.126;2023-07-30T03:16:41;17.40;99.90
33955;DHT22;20233;50.804;7.126;2023-07-30T03:19:06;17.40;99.90
33955;DHT22;20233;50.804;7.126;2023-07-30T03:21:32;17.40;99.90
33955;DHT22;20233;50.804;7.126;2023-07-30T03:23:57;17.40;99.90
33955;DHT22;20233;50.804;7.126;2023-07-30T03:26:23;17.50;99.90
33955;DHT22;20233;50.804;7.126;2023-07-30T03:28:48;17.50;99.90
33955;DHT22;20233;50.804;7.126;2023-07-30T03:31:14;17.50;99.90
33955;DHT22;20233;50.804;7.126;2023-07-30T03:33:40;17.50;99.90
33955;DHT22;20233;50.804;7.126;2023-07-30T03:36:10;17.50;99.90
33955;DHT22;20233;50.804;7.126;2023-07-30T03:38:35;17.50;99.90
33955;DHT22;20233;50.804;7.126;2023-07-30T03:41:01;17.60;99.90
33955;DHT22;20233;50.804;7.126;2023-07-30T03:43:26;17.60;99.90
33955;DHT22;20233;50.804;7.126;2023-07-30T03:45:52;17.60;99.90
33955;DHT22;20233;50.804;7.126;2023-07-30T03:48:17;17.60;99.90
33955;DHT22;20233;50.804;7.126;2023-07-30T03:50:43;17.60;99.90
33955;DHT22;20233;50.804;7.126;2023-07-30T03:53:08;17.60;99.90
33955;DHT22;20233;50.804;7.126;2023-07-30T03:55:34;17.60;99.90
33955;DHT22;20233;50.804;7.126;2023-07-30T03:58:00;17.70;99.90
33955;DHT22;20233;50.804;7.126;2023-07-30T04:00:25;17.70;99.90
33955;DHT22;20233;50.804;7.126;2023-07-30T04:02:51;17.60;99.90
33955;DHT22;20233;50.804;7.126;2023-07-30T04:05:16;17.60;99.90
33955;DHT22;20233;50.804;7.126;2023-07-30T04:07:42;17.60;99.90
33955;DHT22;20233;50.804;7.126;2023-07-30T04:10:07;17.60;99.90
33955;DHT22;20233;50.804;7.126;2023-07-30T04:12:33;17.60;99.90
33955;DHT22;20233;50.804;7.126;2023-07-30T04:14:59;17.60;99.90
33955;DHT22;20233;50.804;7.126;2023-07-30T04:17:24;17.60;99.90
33955;DHT22;20233;50.804;7.126;2023-07-30T04:19:51;17.60;99.90
33955;DHT22;20233;50.804;7.126;2023-07-30T04:22:17;17.50;99.90
33955;DHT22;20233;50.804;7.126;2023-07-30T04:24:42;17.50;99.90
33955;DHT22;20233;50.804;7.126;2023-07-30T04:27:08;17.60;99.90
33955;DHT22;20233;50.804;7.126;2023-07-30T04:29:33;17.60;99.90
33955;DHT22;20233;50.804;7.126;2023-07-30T04:31:59;17.60;99.90
33955;DHT22;20233;50.804;7.126;2023-07-30T04:34:24;17.60;99.90
33955;DHT22;20233;50.804;7.126;2023-07-30T04:36:50;17.70;99.90
33955;DHT22;20233;50.804;7.126;2023-07-30T04:39:16;17.60;99.90
33955;DHT22;20233;50.804;7.126;2023-07-30T04:41:41;17.60;99.90
33955;DHT22;20233;50.804;7.126;2023-07-30T04:44:07;17.60;99.90
33955;DHT22;20233;50.804;7.126;2023-07-30T04:46:32;17.60;99.90
33955;DHT22;20233;50.804;7.126;2023-07-30T04:48:58;17.60;99.90
33955;DHT22;20233;50.804;7.126;2023-07-30T04:51:24;17.60;99.90
33955;DHT22;20233;50.804;7.126;2023-07-30T04:53:49;17.50;99.90
33955;DHT22;20233;50.804;7.126;2023-07-30T04:56:15;17.60;99.90
33955;DHT22;20233;50.804;7.126;2023-07-30T04:58:40;17.50;99.90
33955;DHT22;20233;50.804;7.126;2023-07-30T05:01:06;17.50;99.90
33955;DHT22;20233;50.804;7.126;2023-07-30T05:03:31;17.50;99.90
33955;DHT22;20233;50.804;7.126;2023-07-30T05:05:57;17.40;99.90
33955;DHT22;20233;50.804;7.126;2023-07-30T05:08:22;17.40;99.90
33955;DHT22;20233;50.804;7.126;2023-07-30T05:10:48;17.50;99.90
33955;DHT22;20233;50.804;7.126;2023-07-30T05:13:13;17.40;99.90
33955;DHT22;20233;50.804;7.126;2023-07-30T05:15:39;17.40;99.90
33955;DHT22;20233;50.804;7.126;2023-07-30T05:18:05;17.50;99.90
33955;DHT22;20233;50.804;7.126;2023-07-30T05:20:30;17.50;99.90
33955;DHT22;20233;50.804;7.126;2023-07-30T05:22:56;17.30;99.90
33955;DHT22;20233;50.804;7.126;2023-07-30T05:25:21;17.50;99.90
33955;DHT22;20233;50.804;7.126;2023-07-30T05:27:48;17.60;99.90
33955;DHT22;20233;50.804;7.126;2023-07-30T05:32:39;17.60;99.90
33955;DHT22;20233;50.804;7.126;2023-07-30T05:35:05;17.60;99.90
33955;DHT22;20233;50.804;7.126;2023-07-30T05:37:31;17.60;99.90
33955;DHT22;20233;50.804;7.126;2023-07-30T05:39:56;17.60;99.90
33955;DHT22;20233;50.804;7.126;2023-07-30T05:42:22;17.60;99.90
33955;DHT22;20233;50.804;7.126;2023-07-30T05:44:47;17.60;99.90
33955;DHT22;20233;50.804;7.126;2023-07-30T05:47:13;17.60;99.90
33955;DHT22;20233;50.804;7.126;2023-07-30T05:49:38;17.60;99.90
33955;DHT22;20233;50.804;7.126;2023-07-30T05:52:04;17.60;99.90
33955;DHT22;20233;50.804;7.126;2023-07-30T05:54:30;17.70;99.90
33955;DHT22;20233;50.804;7.126;2023-07-30T05:56:55;17.70;99.90
33955;DHT22;20233;50.804;7.126;2023-07-30T05:59:21;17.70;99.90
33955;DHT22;20233;50.804;7.126;2023-07-30T06:01:46;17.70;99.90
33955;DHT22;20233;50.804;7.126;2023-07-30T06:04:12;17.70;99.90
33955;DHT22;20233;50.804;7.126;2023-07-30T06:06:38;17.70;99.90
33955;DHT22;20233;50.804;7.126;2023-07-30T06:09:03;17.80;99.90
33955;DHT22;20233;50.804;7.126;2023-07-30T06:11:29;17.70;99.90
33955;DHT22;20233;50.804;7.126;2023-07-30T06:13:54;17.50;99.90
33955;DHT22;20233;50.804;7.126;2023-07-30T06:16:20;17.70;99.90
33955;DHT22;20233;50.804;7.126;2023-07-30T06:18:46;17.80;99.90
33955;DHT22;20233;50.804;7.126;2023-07-30T06:21:12;17.80;99.90
33955;DHT22;20233;50.804;7.126;2023-07-30T06:23:37;17.70;99.90
33955;DHT22;20233;50.804;7.126;2023-07-30T06:26:03;17.70;99.90
33955;DHT22;20233;50.804;7.126;2023-07-30T06:28:28;17.80;99.90
33955;DHT22;20233;50.804;7.126;2023-07-30T06:30:54;17.70;99.90
33955;DHT22;20233;50.804;7.126;2023-07-30T06:33:19;17.70;99.90
33955;DHT22;20233;50.804;7.126;2023-07-30T06:35:45;17.70;99.90
33955;DHT22;20233;50.804;7.126;2023-07-30T06:38:10;17.80;99.90
33955;DHT22;20233;50.804;7.126;2023-07-30T06:40:36;17.70;99.90
33955;DHT22;20233;50.804;7.126;2023-07-30T06:43:01;17.70;99.90
33955;DHT22;20233;50.804;7.126;2023-07-30T06:45:27;17.80;99.90
33955;DHT22;20233;50.804;7.126;2023-07-30T06:47:53;17.80;99.90
33955;DHT22;20233;50.804;7.126;2023-07-30T06:50:19;17.80;99.90
33955;DHT22;20233;50.804;7.126;2023-07-30T06:52:44;17.90;99.90
33955;DHT22;20233;50.804;7.126;2023-07-30T06:55:10;17.90;99.90
33955;DHT22;20233;50.804;7.126;2023-07-30T06:57:35;17.90;99.90
33955;DHT22;20233;50.804;7.126;2023-07-30T07:00:01;17.90;99.90
33955;DHT22;20233;50.804;7.126;2023-07-30T07:02:27;18.00;99.90
33955;DHT22;20233;50.804;7.126;2023-07-30T07:04:54;17.90;99.90
33955;DHT22;20233;50.804;7.126;2023-07-30T07:07:20;18.00;99.90
33955;DHT22;20233;50.804;7.126;2023-07-30T07:09:46;17.90;99.90
33955;DHT22;20233;50.804;7.126;2023-07-30T07:12:11;18.00;99.90
33955;DHT22;20233;50.804;7.126;2023-07-30T07:14:37;17.90;99.90
33955;DHT22;20233;50.804;7.126;2023-07-30T07:17:03;17.90;99.90
33955;DHT22;20233;50.804;7.126;2023-07-30T07:19:28;18.00;99.90
33955;DHT22;20233;50.804;7.126;2023-07-30T07:21:54;18.00;99.90
33955;DHT22;20233;50.804;7.126;2023-07-30T07:24:19;17.90;99.90
33955;DHT22;20233;50.804;7.126;2023-07-30T07:26:47;17.90;99.90
33955;DHT22;20233;50.804;7.126;2023-07-30T07:29:12;18.00;99.90
33955;DHT22;20233;50.804;7.126;2023-07-30T07:31:38;18.00;99.90
33955;DHT22;20233;50.804;7.126;2023-07-30T07:34:03;18.00;99.90
33955;DHT22;20233;50.804;7.126;2023-07-30T07:36:29;18.00;99.90
33955;DHT22;20233;50.804;7.126;2023-07-30T07:38:55;18.00;99.90
33955;DHT22;20233;50.804;7.126;2023-07-30T07:41:20;18.00;99.90
33955;DHT22;20233;50.804;7.126;2023-07-30T07:43:48;18.10;99.90
33955;DHT22;20233;50.804;7.126;2023-07-30T07:46:14;18.00;99.90
33955;DHT22;20233;50.804;7.126;2023-07-30T07:48:43;18.10;99.90
33955;DHT22;20233;50.804;7.126;2023-07-30T07:51:10;18.10;99.90
33955;DHT22;20233;50.804;7.126;2023-07-30T07:53:36;18.10;99.90
33955;DHT22;20233;50.804;7.126;2023-07-30T07:56:02;18.20;99.90
33955;DHT22;20233;50.804;7.126;2023-07-30T07:58:27;18.20;99.90
33955;DHT22;20233;50.804;7.126;2023-07-30T08:00:57;18.30;99.90
33955;DHT22;20233;50.804;7.126;2023-07-30T08:03:23;18.40;99.90
33955;DHT22;20233;50.804;7.126;2023-07-30T08:05:51;18.40;99.90
33955;DHT22;20233;50.804;7.126;2023-07-30T08:08:17;18.50;99.90
33955;DHT22;20233;50.804;7.126;2023-07-30T08:10:42;18.50;99.90
33955;DHT22;20233;50.804;7.126;2023-07-30T08:13:10;18.60;99.90
33955;DHT22;20233;50.804;7.126;2023-07-30T08:15:36;18.70;99.90
33955;DHT22;20233;50.804;7.126;2023-07-30T08:18:02;18.70;99.90
33955;DHT22;20233;50.804;7.126;2023-07-30T08:20:27;18.80;99.90
33955;DHT22;20233;50.804;7.126;2023-07-30T08:22:53;18.90;99.90
33955;DHT22;20233;50.804;7.126;2023-07-30T08:25:18;19.00;99.90
33955;DHT22;20233;50.804;7.126;2023-07-30T08:27:44;18.90;99.90
33955;DHT22;20233;50.804;7.126;2023-07-30T08:30:10;19.00;99.90
33955;DHT22;20233;50.804;7.126;2023-07-30T08:32:36;18.90;99.90
33955;DHT22;20233;50.804;7.126;2023-07-30T08:35:01;18.80;99.90
33955;DHT22;20233;50.804;7.126;2023-07-30T08:37:27;19.20;99.90
33955;DHT22;20233;50.804;7.126;2023-07-30T08:39:54;19.40;99.90
33955;DHT22;20233;50.804;7.126;2023-07-30T08:42:19;19.50;99.90
33955;DHT22;20233;50.804;7.126;2023-07-30T08:44:45;19.50;99.90
33955;DHT22;20233;50.804;7.126;2023-07-30T08:47:11;19.50;99.90
33955;DHT22;20233;50.804;7.126;2023-07-30T08:49:36;19.40;99.90
33955;DHT22;20233;50.804;7.126;2023-07-30T08:52:03;19.40;99.90
33955;DHT22;20233;50.804;7.126;2023-07-30T08:54:30;19.20;99.90
33955;DHT22;20233;50.804;7.126;2023-07-30T08:56:57;19.20;99.90
33955;DHT22;20233;50.804;7.126;2023-07-30T08:59:24;19.20;99.90
33955;DHT22;20233;50.804;7.126;2023-07-30T09:01:52;19.20;99.90
33955;DHT22;20233;50.804;7.126;2023-07-30T09:04:19;19.20;99.90
33955;DHT22;20233;50.804;7.126;2023-07-30T09:06:49;19.40;99.90
33955;DHT22;20233;50.804;7.126;2023-07-30T09:09:15;19.50;99.90
33955;DHT22;20233;50.804;7.126;2023-07-30T09:11:41;19.60;99.90
33955;DHT22;20233;50.804;7.126;2023-07-30T09:14:06;19.80;99.90
33955;DHT22;20233;50.804;7.126;2023-07-30T09:16:33;20.00;99.90
33955;DHT22;20233;50.804;7.126;2023-07-30T09:18:59;20.00;99.90
33955;DHT22;20233;50.804;7.126;2023-07-30T09:21:32;20.10;99.90
33955;DHT22;20233;50.804;7.126;2023-07-30T09:24:01;20.10;99.90
33955;DHT22;20233;50.804;7.126;2023-07-30T09:26:40;20.30;99.90
33955;DHT22;20233;50.804;7.126;2023-07-30T09:29:10;20.40;99.90
33955;DHT22;20233;50.804;7.126;2023-07-30T09:31:49;20.50;99.90
33955;DHT22;20233;50.804;7.126;2023-07-30T09:34:17;20.50;99.90
33955;DHT22;20233;50.804;7.126;2023-07-30T09:36:44;20.60;99.90
33955;DHT22;20233;50.804;7.126;2023-07-30T09:39:17;20.60;99.90
33955;DHT22;20233;50.804;7.126;2023-07-30T09:41:45;20.60;99.90
33955;DHT22;20233;50.804;7.126;2023-07-30T09:44:11;20.60;99.90
33955;DHT22;20233;50.804;7.126;2023-07-30T09:46:44;20.70;99.90
33955;DHT22;20233;50.804;7.126;2023-07-30T09:49:10;20.70;99.90
33955;DHT22;20233;50.804;7.126;2023-07-30T09:51:39;20.70;99.90
33955;DHT22;20233;50.804;7.126;2023-07-30T09:54:10;20.70;99.90
33955;DHT22;20233;50.804;7.126;2023-07-30T09:56:37;20.60;99.90
33955;DHT22;20233;50.804;7.126;2023-07-30T09:59:04;20.70;99.90
33955;DHT22;20233;50.804;7.126;2023-07-30T10:01:30;20.90;99.90
33955;DHT22;20233;50.804;7.126;2023-07-30T10:03:57;21.00;99.90
33955;DHT22;20233;50.804;7.126;2023-07-30T10:06:28;21.10;99.90
33955;DHT22;20233;50.804;7.126;2023-07-30T10:11:23;21.20;99.90
33955;DHT22;20233;50.804;7.126;2023-07-30T10:13:49;21.30;99.90
33955;DHT22;20233;50.804;7.126;2023-07-30T10:16:15;21.40;99.90
33955;DHT22;20233;50.804;7.126;2023-07-30T10:18:42;21.40;99.90
33955;DHT22;20233;50.804;7.126;2023-07-30T10:21:08;21.30;99.90
33955;DHT22;20233;50.804;7.126;2023-07-30T10:23:35;21.40;99.90
33955;DHT22;20233;50.804;7.126;2023-07-30T10:26:09;21.40;99.90
33955;DHT22;20233;50.804;7.126;2023-07-30T10:28:36;21.70;99.90
33955;DHT22;20233;50.804;7.126;2023-07-30T10:31:07;21.80;99.90
33955;DHT22;20233;50.804;7.126;2023-07-30T10:33:53;22.00;99.90
33955;DHT22;20233;50.804;7.126;2023-07-30T10:39:21;22.00;99.90
33955;DHT22;20233;50.804;7.126;2023-07-30T10:41:51;22.00;99.90
33955;DHT22;20233;50.804;7.126;2023-07-30T10:44:29;21.70;99.90
33955;DHT22;20233;50.804;7.126;2023-07-30T10:46:57;21.40;99.90
33955;DHT22;20233;50.804;7.126;2023-07-30T10:49:23;21.40;99.90
33955;DHT22;20233;50.804;7.126;2023-07-30T10:51:51;21.20;99.90
33955;DHT22;20233;50.804;7.126;2023-07-30T10:54:17;21.20;99.90
33955;DHT22;20233;50.804;7.126;2023-07-30T10:56:42;21.10;99.90
33955;DHT22;20233;50.804;7.126;2023-07-30T10:59:08;21.20;99.90
33955;DHT22;20233;50.804;7.126;2023-07-30T11:01:39;21.30;99.90
33955;DHT22;20233;50.804;7.126;2023-07-30T11:04:13;21.30;99.90
33955;DHT22;20233;50.804;7.126;2023-07-30T11:09:17;21.50;99.90
33955;DHT22;20233;50.804;7.126;2023-07-30T11:11:43;21.60;99.90
33955;DHT22;20233;50.804;7.126;2023-07-30T11:14:17;21.90;99.90
33955;DHT22;20233;50.804;7.126;2023-07-30T11:16:58;22.00;99.90
33955;DHT22;20233;50.804;7.126;2023-07-30T11:19:28;22.00;99.90
33955;DHT22;20233;50.804;7.126;2023-07-30T11:21:56;22.00;99.90
33955;DHT22;20233;50.804;7.126;2023-07-30T11:24:22;22.00;99.90
33955;DHT22;20233;50.804;7.126;2023-07-30T11:26:58;22.00;99.90
33955;DHT22;20233;50.804;7.126;2023-07-30T11:29:24;21.90;99.90
33955;DHT22;20233;50.804;7.126;2023-07-30T11:31:50;22.10;99.90
33955;DHT22;20233;50.804;7.126;2023-07-30T11:34:15;22.40;99.90
33955;DHT22;20233;50.804;7.126;2023-07-30T11:36:43;22.60;99.90
33955;DHT22;20233;50.804;7.126;2023-07-30T11:39:10;22.80;99.90
33955;DHT22;20233;50.804;7.126;2023-07-30T11:41:36;22.80;99.90
33955;DHT22;20233;50.804;7.126;2023-07-30T11:44:02;22.30;99.90
33955;DHT22;20233;50.804;7.126;2023-07-30T11:46:28;22.60;99.90
33955;DHT22;20233;50.804;7.126;2023-07-30T11:49:11;22.60;99.90
33955;DHT22;20233;50.804;7.126;2023-07-30T11:51:37;22.70;99.90
33955;DHT22;20233;50.804;7.126;2023-07-30T11:54:03;22.80;99.90
33955;DHT22;20233;50.804;7.126;2023-07-30T11:56:30;22.90;99.90
33955;DHT22;20233;50.804;7.126;2023-07-30T11:58:57;22.90;99.90
33955;DHT22;20233;50.804;7.126;2023-07-30T12:01:29;22.80;99.90
33955;DHT22;20233;50.804;7.126;2023-07-30T12:03:55;22.80;99.90
33955;DHT22;20233;50.804;7.126;2023-07-30T12:06:21;22.70;99.90
33955;DHT22;20233;50.804;7.126;2023-07-30T12:08:48;22.80;99.90
33955;DHT22;20233;50.804;7.126;2023-07-30T12:11:17;22.80;99.90
33955;DHT22;20233;50.804;7.126;2023-07-30T12:13:44;22.60;99.90
33955;DHT22;20233;50.804;7.126;2023-07-30T12:16:13;22.70;99.90
33955;DHT22;20233;50.804;7.126;2023-07-30T12:18:40;22.90;99.90
33955;DHT22;20233;50.804;7.126;2023-07-30T12:21:06;23.10;99.90
33955;DHT22;20233;50.804;7.126;2023-07-30T12:23:36;23.10;99.90
33955;DHT22;20233;50.804;7.126;2023-07-30T12:26:02;23.10;99.90
33955;DHT22;20233;50.804;7.126;2023-07-30T12:28:31;23.00;99.90
33955;DHT22;20233;50.804;7.126;2023-07-30T12:30:57;23.20;99.90
33955;DHT22;20233;50.804;7.126;2023-07-30T12:33:22;23.20;99.90
33955;DHT22;20233;50.804;7.126;2023-07-30T12:35:48;22.90;99.90
33955;DHT22;20233;50.804;7.126;2023-07-30T12:38:15;23.00;99.90
33955;DHT22;20233;50.804;7.126;2023-07-30T12:40:41;22.80;99.90
33955;DHT22;20233;50.804;7.126;2023-07-30T12:43:06;22.70;99.90
33955;DHT22;20233;50.804;7.126;2023-07-30T12:45:32;22.70;99.90
33955;DHT22;20233;50.804;7.126;2023-07-30T12:47:58;23.00;99.90
33955;DHT22;20233;50.804;7.126;2023-07-30T12:50:23;23.10;99.90
33955;DHT22;20233;50.804;7.126;2023-07-30T12:52:49;23.10;99.90
33955;DHT22;20233;50.804;7.126;2023-07-30T12:55:15;23.20;99.90
33955;DHT22;20233;50.804;7.126;2023-07-30T12:57:41;23.20;99.90
33955;DHT22;20233;50.804;7.126;2023-07-30T13:00:07;23.20;99.90
33955;DHT22;20233;50.804;7.126;2023-07-30T13:02:32;23.40;99.90
33955;DHT22;20233;50.804;7.126;2023-07-30T13:04:59;23.60;99.90
33955;DHT22;20233;50.804;7.126;2023-07-30T13:07:25;23.70;99.90
33955;DHT22;20233;50.804;7.126;2023-07-30T13:10:08;23.70;99.90
33955;DHT22;20233;50.804;7.126;2023-07-30T13:12:34;23.50;99.90
33955;DHT22;20233;50.804;7.126;2023-07-30T13:15:00;23.50;99.90
33955;DHT22;20233;50.804;7.126;2023-07-30T13:17:26;23.70;99.90
33955;DHT22;20233;50.804;7.126;2023-07-30T13:19:52;23.50;99.90
33955;DHT22;20233;50.804;7.126;2023-07-30T13:22:17;23.50;99.90
33955;DHT22;20233;50.804;7.126;2023-07-30T13:24:43;22.60;99.90
33955;DHT22;20233;50.804;7.126;2023-07-30T13:27:09;22.90;99.90
33955;DHT22;20233;50.804;7.126;2023-07-30T13:29:34;23.20;99.90
33955;DHT22;20233;50.804;7.126;2023-07-30T13:32:00;23.40;99.90
33955;DHT22;20233;50.804;7.126;2023-07-30T13:34:26;23.50;99.90
33955;DHT22;20233;50.804;7.126;2023-07-30T13:36:51;23.60;99.90
33955;DHT22;20233;50.804;7.126;2023-07-30T13:39:18;23.80;99.90
33955;DHT22;20233;50.804;7.126;2023-07-30T13:41:43;24.10;99.90
33955;DHT22;20233;50.804;7.126;2023-07-30T13:44:09;24.10;99.90
33955;DHT22;20233;50.804;7.126;2023-07-30T13:46:36;23.80;99.90
33955;DHT22;20233;50.804;7.126;2023-07-30T13:49:02;23.50;99.90
33955;DHT22;20233;50.804;7.126;2023-07-30T13:51:28;23.50;99.90
33955;DHT22;20233;50.804;7.126;2023-07-30T13:53:58;23.60;99.90
33955;DHT22;20233;50.804;7.126;2023-07-30T13:56:25;23.50;99.90
33955;DHT22;20233;50.804;7.126;2023-07-30T13:58:50;23.20;99.90
33955;DHT22;20233;50.804;7.126;2023-07-30T14:01:16;23.50;99.90
33955;DHT22;20233;50.804;7.126;2023-07-30T14:03:41;23.50;99.90
33955;DHT22;20233;50.804;7.126;2023-07-30T14:06:07;23.50;99.90
33955;DHT22;20233;50.804;7.126;2023-07-30T14:08:32;23.40;99.90
33955;DHT22;20233;50.804;7.126;2023-07-30T14:10:58;23.00;99.90
33955;DHT22;20233;50.804;7.126;2023-07-30T14:13:24;23.60;99.90
33955;DHT22;20233;50.804;7.126;2023-07-30T14:15:50;23.50;99.90
33955;DHT22;20233;50.804;7.126;2023-07-30T14:18:15;23.70;99.90
33955;DHT22;20233;50.804;7.126;2023-07-30T14:20:41;24.00;99.90
33955;DHT22;20233;50.804;7.126;2023-07-30T14:23:07;23.70;99.90
33955;DHT22;20233;50.804;7.126;2023-07-30T14:25:32;23.90;99.90
33955;DHT22;20233;50.804;7.126;2023-07-30T14:27:58;24.00;99.90
33955;DHT22;20233;50.804;7.126;2023-07-30T14:30:23;24.00;99.90
33955;DHT22;20233;50.804;7.126;2023-07-30T14:35:16;24.40;99.90
33955;DHT22;20233;50.804;7.126;2023-07-30T14:37:41;24.70;99.90
33955;DHT22;20233;50.804;7.126;2023-07-30T14:40:07;24.70;99.90
33955;DHT22;20233;50.804;7.126;2023-07-30T14:42:33;24.70;99.90
33955;DHT22;20233;50.804;7.126;2023-07-30T14:44:58;24.60;99.90
33955;DHT22;20233;50.804;7.126;2023-07-30T14:47:24;24.90;99.90
33955;DHT22;20233;50.804;7.126;2023-07-30T14:49:49;25.10;99.90
33955;DHT22;20233;50.804;7.126;2023-07-30T14:52:17;25.20;99.90
33955;DHT22;20233;50.804;7.126;2023-07-30T14:54:44;25.20;99.90
33955;DHT22;20233;50.804;7.126;2023-07-30T14:57:10;25.20;99.90
33955;DHT22;20233;50.804;7.126;2023-07-30T14:59:35;25.20;99.90
33955;DHT22;20233;50.804;7.126;2023-07-30T15:02:01;25.30;99.90
33955;DHT22;20233;50.804;7.126;2023-07-30T15:04:26;25.40;99.90
33955;DHT22;20233;50.804;7.126;2023-07-30T15:06:52;25.20;99.90
33955;DHT22;20233;50.804;7.126;2023-07-30T15:09:17;25.00;99.90
33955;DHT22;20233;50.804;7.126;2023-07-30T15:11:43;24.70;99.90
33955;DHT22;20233;50.804;7.126;2023-07-30T15:14:08;24.60;99.90
33955;DHT22;20233;50.804;7.126;2023-07-30T15:16:34;24.90;99.90
33955;DHT22;20233;50.804;7.126;2023-07-30T15:18:59;24.90;99.90
33955;DHT22;20233;50.804;7.126;2023-07-30T15:21:25;25.00;99.90
33955;DHT22;20233;50.804;7.126;2023-07-30T15:23:51;25.10;99.90
33955;DHT22;20233;50.804;7.126;2023-07-30T15:26:16;25.10;99.90
33955;DHT22;20233;50.804;7.126;2023-07-30T15:28:42;25.10;99.90
33955;DHT22;20233;50.804;7.126;2023-07-30T15:31:08;25.10;99.90
33955;DHT22;20233;50.804;7.126;2023-07-30T15:33:34;25.50;99.90
33955;DHT22;20233;50.804;7.126;2023-07-30T15:35:59;25.50;99.90
33955;DHT22;20233;50.804;7.126;2023-07-30T15:38:26;25.60;99.90
33955;DHT22;20233;50.804;7.126;2023-07-30T15:40:52;25.70;99.90